Alorton, Illinois
Current Conditions -  °F | °C
As of 9:53 AM on Wednesday 26 Nov 2014 (Local Time) from KCPS Reporting Station
Overcast Overcast  
Wind Chill: 24°   Ceiling: 9000
Heat Index: 32°   Visibility: 9mi
Dew Point: 28°   Wind: 9mph
Humidity: 85%   Direction: 140°SE
Pressure: 30.06"   Gusts: NA
Location:  38.5841°N, 90.126°W
Report Text: KCPS 261553Z 14008KT 9SM OVC090 00/M02 A3006 RMK AO2 SLP183 T00001022
Loading
Personal Weather Stations






























Interactive Weather Map New forecast layout! Learn more

10-Day Weather Forecast

Advertisements
Track Severe Weather on mobile